createdAt,value
2018-03-21T00:02:01.410Z,11.50
2018-03-21T00:04:28.910Z,11.25
2018-03-21T00:06:57.188Z,11.30
2018-03-21T00:09:25.429Z,10.90
2018-03-21T00:11:52.942Z,11.07
2018-03-21T00:14:20.427Z,11.20
2018-03-21T00:16:47.938Z,8.75
2018-03-21T00:19:16.186Z,10.23
2018-03-21T00:21:43.682Z,9.57
2018-03-21T00:24:11.935Z,10.38
2018-03-21T00:26:39.436Z,9.68
2018-03-21T00:29:06.904Z,9.43
2018-03-21T00:31:34.388Z,10.30
2018-03-21T00:34:01.883Z,10.40
2018-03-21T00:36:30.199Z,10.70
2018-03-21T00:38:57.695Z,9.70
2018-03-21T00:41:25.194Z,10.18
2018-03-21T00:43:53.440Z,9.73
2018-03-21T00:46:20.913Z,10.02
2018-03-21T00:48:49.202Z,10.10
2018-03-21T00:51:17.457Z,9.30
2018-03-21T00:53:44.950Z,9.02
2018-03-21T00:56:12.444Z,8.82
2018-03-21T00:58:39.926Z,9.40
2018-03-21T01:01:07.426Z,8.95
2018-03-21T01:03:34.955Z,9.07
2018-03-21T01:06:03.199Z,8.50
2018-03-21T01:08:30.684Z,8.75
2018-03-21T01:10:58.163Z,7.93
2018-03-21T01:13:26.438Z,8.70
2018-03-21T01:15:54.676Z,8.07
2018-03-21T01:18:22.150Z,8.65
2018-03-21T01:20:49.690Z,7.90
2018-03-21T01:23:17.187Z,8.05
2018-03-21T01:25:45.458Z,7.18
2018-03-21T01:28:13.698Z,8.05
2018-03-21T01:30:41.207Z,7.53
2018-03-21T01:33:09.473Z,7.50
2018-03-21T01:35:37.742Z,7.70
2018-03-21T01:38:05.214Z,7.25
2018-03-21T01:40:33.482Z,8.13
2018-03-21T01:43:00.946Z,7.40
2018-03-21T01:45:29.226Z,7.85
2018-03-21T01:47:57.457Z,7.55
2018-03-21T01:50:24.961Z,6.72
2018-03-21T01:53:05.269Z,7.47
2018-03-21T01:55:32.744Z,7.50
2018-03-21T01:58:00.237Z,7.95
2018-03-21T02:00:28.500Z,6.97
2018-03-21T02:02:56.017Z,8.18
2018-03-21T02:05:23.492Z,7.50
2018-03-21T02:07:50.990Z,6.72
2018-03-21T02:10:19.243Z,7.50
2018-03-21T02:12:46.734Z,6.30
2018-03-21T02:15:14.232Z,6.90
2018-03-21T02:17:41.684Z,8.07
2018-03-21T02:20:09.180Z,6.87
2018-03-21T02:22:37.426Z,7.20
2018-03-21T02:25:04.922Z,6.43
2018-03-21T02:27:32.398Z,7.62
2018-03-21T02:30:00.651Z,7.03
2018-03-21T02:32:28.127Z,8.23
2018-03-21T02:34:56.391Z,8.13
2018-03-21T02:37:23.866Z,8.70
2018-03-21T02:39:52.146Z,7.03
2018-03-21T02:42:20.406Z,7.00
2018-03-21T02:44:49.428Z,6.90
2018-03-21T02:47:16.931Z,7.40
2018-03-21T02:49:44.418Z,7.50
2018-03-21T02:52:11.907Z,7.95
2018-03-21T02:54:39.391Z,7.18
2018-03-21T02:57:06.886Z,6.07
2018-03-21T02:59:34.347Z,7.07
2018-03-21T03:02:01.845Z,7.10
2018-03-21T03:04:29.340Z,7.20
2018-03-21T03:06:56.859Z,8.07
2018-03-21T03:09:24.350Z,7.28
2018-03-21T03:11:51.817Z,7.00
2018-03-21T03:14:19.331Z,6.97
2018-03-21T03:16:47.560Z,7.10
2018-03-21T03:19:15.029Z,8.20
2018-03-21T03:21:42.525Z,8.13
2018-03-21T03:24:10.010Z,6.53
2018-03-21T03:26:37.520Z,6.60
2018-03-21T03:29:05.751Z,7.25
2018-03-21T03:31:33.248Z,6.72
2018-03-21T03:34:00.707Z,6.93
2018-03-21T03:36:28.215Z,6.60
2018-03-21T03:38:55.706Z,7.62
2018-03-21T03:41:23.200Z,6.37
2018-03-21T03:43:51.457Z,7.15
2018-03-21T03:46:18.927Z,7.68
2018-03-21T03:48:47.207Z,6.93
2018-03-21T03:51:15.450Z,7.32
2018-03-21T03:53:42.920Z,7.07
2018-03-21T03:56:10.406Z,7.87
2018-03-21T03:58:38.673Z,6.90
2018-03-21T04:01:06.947Z,7.50
2018-03-21T04:03:35.199Z,6.65
2018-03-21T04:06:02.700Z,7.37
2018-03-21T04:08:30.940Z,6.68
2018-03-21T04:10:58.434Z,6.90
2018-03-21T04:13:26.687Z,7.43
2018-03-21T04:15:54.220Z,7.03
2018-03-21T04:18:21.721Z,7.50
2018-03-21T04:20:49.974Z,7.30
2018-03-21T04:23:17.474Z,7.12
2018-03-21T04:25:44.954Z,7.85
2018-03-21T04:28:12.461Z,8.93
2018-03-21T04:30:39.947Z,8.10
2018-03-21T04:33:08.210Z,9.93
2018-03-21T04:35:36.448Z,9.05
2018-03-21T04:38:03.970Z,9.07
2018-03-21T04:40:31.470Z,8.20
2018-03-21T04:42:58.958Z,8.27
2018-03-21T04:45:27.195Z,7.95
2018-03-21T04:47:54.691Z,8.32
2018-03-21T04:50:22.188Z,8.73
2018-03-21T04:52:49.659Z,8.80
2018-03-21T04:55:17.167Z,8.13
2018-03-21T04:57:45.427Z,8.75
2018-03-21T05:00:14.438Z,7.80
2018-03-21T05:02:42.679Z,7.40
2018-03-21T05:05:10.180Z,8.25
2018-03-21T05:07:38.434Z,8.70
2018-03-21T05:10:05.914Z,7.53
2018-03-21T05:12:34.187Z,6.97
2018-03-21T05:15:02.431Z,7.35
2018-03-21T05:17:30.479Z,7.78
2018-03-21T05:19:57.969Z,8.25
2018-03-21T05:22:25.473Z,7.85
2018-03-21T05:24:52.951Z,7.72
2018-03-21T05:27:20.488Z,7.62
2018-03-21T05:29:48.751Z,7.78
2018-03-21T05:32:17.025Z,7.22
2018-03-21T05:34:45.338Z,7.82
2018-03-21T05:37:12.775Z,7.65
2018-03-21T05:39:40.272Z,8.20
2018-03-21T05:42:07.771Z,7.03
2018-03-21T05:44:35.276Z,8.35
2018-03-21T05:47:02.741Z,8.80
2018-03-21T05:49:30.288Z,8.90
2018-03-21T05:51:57.771Z,7.37
2018-03-21T05:54:25.266Z,7.65
2018-03-21T05:56:53.495Z,8.25
2018-03-21T05:59:20.996Z,7.60
2018-03-21T06:01:48.479Z,7.70
2018-03-21T06:04:16.907Z,7.45
2018-03-21T06:06:44.370Z,8.55
2018-03-21T06:09:11.898Z,8.95
2018-03-21T06:11:39.405Z,8.43
2018-03-21T06:14:06.866Z,8.70
2018-03-21T06:16:34.388Z,8.18
2018-03-21T06:19:01.845Z,7.78
2018-03-21T06:21:29.347Z,9.07
2018-03-21T06:23:56.850Z,8.07
2018-03-21T06:26:24.349Z,8.13
2018-03-21T06:28:51.883Z,8.20
2018-03-21T06:31:19.358Z,9.43
2018-03-21T06:33:46.847Z,8.63
2018-03-21T06:36:15.109Z,8.00
2018-03-21T06:38:42.630Z,8.25
2018-03-21T06:41:10.109Z,7.55
2018-03-21T06:43:37.589Z,8.07
2018-03-21T06:46:05.108Z,7.90
2018-03-21T06:48:32.650Z,7.90
2018-03-21T06:51:00.136Z,5.85
2018-03-21T06:53:27.611Z,5.57
2018-03-21T06:55:55.099Z,5.93
2018-03-21T06:58:23.398Z,5.05
2018-03-21T07:00:50.879Z,5.07
2018-03-21T07:03:18.351Z,4.03
2018-03-21T07:05:45.830Z,4.37
2018-03-21T07:08:13.313Z,3.80
2018-03-21T07:10:41.582Z,4.80
2018-03-21T07:13:09.806Z,4.87
2018-03-21T07:15:49.247Z,4.55
2018-03-21T07:18:17.172Z,4.47
2018-03-21T07:20:45.418Z,4.18
2018-03-21T07:23:12.954Z,5.70
2018-03-21T07:25:41.156Z,5.30
2018-03-21T07:28:08.648Z,4.12
2018-03-21T07:30:36.939Z,5.85
2018-03-21T07:33:04.404Z,5.87
2018-03-21T07:35:31.915Z,6.40
2018-03-21T07:37:59.387Z,5.53
2018-03-21T07:40:26.898Z,5.25
2018-03-21T07:42:54.378Z,6.07
2018-03-21T07:45:21.843Z,4.70
2018-03-21T07:47:49.359Z,4.50
2018-03-21T07:50:16.827Z,5.75
2018-03-21T07:52:44.334Z,4.78
2018-03-21T07:55:11.823Z,5.20
2018-03-21T07:57:39.307Z,6.22
2018-03-21T08:00:06.782Z,4.97
2018-03-21T08:02:34.273Z,3.92
2018-03-21T08:05:01.762Z,4.30
2018-03-21T08:07:29.295Z,5.05
2018-03-21T08:09:57.605Z,3.97
2018-03-21T08:12:25.080Z,4.40
2018-03-21T08:14:52.602Z,4.20
2018-03-21T08:17:20.843Z,4.47
2018-03-21T08:19:48.367Z,4.45
2018-03-21T08:22:15.875Z,4.53
2018-03-21T08:24:43.552Z,3.85
2018-03-21T08:27:11.838Z,5.20
2018-03-21T08:29:39.324Z,3.60
2018-03-21T08:32:06.827Z,4.75
2018-03-21T08:34:34.324Z,4.40
2018-03-21T08:37:01.808Z,4.82
2018-03-21T08:39:29.325Z,4.62
2018-03-21T08:41:56.832Z,4.83
2018-03-21T08:44:24.368Z,4.45
2018-03-21T08:46:51.839Z,4.40
2018-03-21T08:49:19.369Z,3.60
2018-03-21T08:51:47.616Z,3.90
2018-03-21T08:54:15.099Z,3.45
2018-03-21T09:02:48.402Z,3.50
2018-03-21T09:05:15.903Z,4.37
2018-03-21T09:07:43.387Z,3.75
2018-03-21T09:10:10.916Z,3.40
2018-03-21T09:12:38.456Z,3.12
2018-03-21T09:15:06.661Z,3.67
2018-03-21T09:17:34.135Z,3.42
2018-03-21T09:20:01.595Z,3.87
2018-03-21T09:22:29.101Z,4.43
2018-03-21T09:24:56.567Z,3.25
2018-03-21T09:27:24.091Z,2.95
2018-03-21T09:29:52.327Z,2.95
2018-03-21T09:32:19.839Z,4.20
2018-03-21T09:34:48.085Z,4.18
2018-03-21T09:37:15.579Z,4.12
2018-03-21T09:39:43.059Z,3.25
2018-03-21T09:42:10.520Z,3.90
2018-03-21T09:44:38.049Z,3.40
2018-03-21T09:47:06.289Z,3.25
2018-03-21T09:49:33.778Z,3.35
2018-03-21T09:52:02.002Z,3.58
2018-03-21T09:54:31.992Z,2.65
2018-03-21T09:56:59.458Z,3.83
2018-03-21T09:59:26.995Z,3.35
2018-03-21T10:01:55.293Z,2.83
2018-03-21T10:04:22.739Z,3.30
2018-03-21T10:06:50.254Z,4.35
2018-03-21T10:09:17.730Z,3.80
2018-03-21T10:11:45.986Z,2.85
2018-03-21T10:14:13.454Z,4.00
2018-03-21T10:16:40.970Z,3.62
2018-03-21T10:19:08.447Z,3.62
2018-03-21T10:21:35.949Z,3.33
2018-03-21T10:24:04.174Z,3.35
2018-03-21T10:26:31.646Z,2.85
2018-03-21T10:28:59.168Z,3.30
2018-03-21T10:31:26.645Z,3.03
2018-03-21T10:33:54.137Z,3.00
2018-03-21T10:36:21.598Z,2.62
2018-03-21T10:38:49.081Z,2.50
2018-03-21T10:41:17.311Z,2.95
2018-03-21T10:43:44.804Z,1.90
2018-03-21T10:46:12.303Z,2.70
2018-03-21T10:48:39.826Z,3.42
2018-03-21T10:51:08.095Z,3.22
2018-03-21T10:53:35.581Z,3.00
2018-03-21T10:56:03.052Z,2.60
2018-03-21T10:58:30.510Z,3.47
2018-03-21T11:00:58.026Z,2.80
2018-03-21T11:03:25.522Z,3.12
2018-03-21T11:05:53.750Z,3.15
2018-03-21T11:08:21.232Z,3.30
2018-03-21T11:10:49.551Z,2.90
2018-03-21T11:13:17.020Z,3.58
2018-03-21T11:15:44.538Z,3.85
2018-03-21T11:18:12.798Z,2.58
2018-03-21T11:20:41.066Z,3.00
2018-03-21T11:23:08.578Z,2.50
2018-03-21T11:25:36.092Z,2.75
2018-03-21T11:28:04.327Z,2.50
2018-03-21T11:30:31.786Z,2.75
2018-03-21T11:32:59.287Z,2.53
2018-03-21T11:35:27.545Z,2.40
2018-03-21T11:37:55.026Z,2.30
2018-03-21T11:40:23.259Z,2.20
2018-03-21T11:42:50.776Z,2.08
2018-03-21T11:45:18.278Z,2.50
2018-03-21T11:47:45.743Z,3.15
2018-03-21T11:50:14.017Z,2.40
2018-03-21T11:52:41.516Z,2.87
2018-03-21T11:55:09.767Z,2.85
2018-03-21T11:57:37.267Z,2.78
2018-03-21T12:00:04.783Z,3.33
2018-03-21T12:02:33.028Z,3.20
2018-03-21T12:05:00.565Z,2.47
2018-03-21T12:07:28.105Z,2.55
2018-03-21T12:09:56.464Z,2.65
2018-03-21T12:12:24.624Z,2.37
2018-03-21T12:14:52.134Z,2.12
2018-03-21T12:17:19.606Z,2.40
2018-03-21T12:19:47.115Z,2.85
2018-03-21T12:22:14.614Z,3.60
2018-03-21T12:24:42.162Z,2.10
2018-03-21T12:27:09.624Z,2.03
2018-03-21T12:29:37.856Z,2.85
2018-03-21T12:32:05.374Z,2.70
2018-03-21T12:34:32.839Z,2.25
2018-03-21T12:37:00.343Z,2.20
2018-03-21T12:39:27.823Z,2.15
2018-03-21T12:41:56.136Z,2.80
2018-03-21T12:44:23.625Z,2.35
2018-03-21T12:46:51.099Z,2.70
2018-03-21T12:49:18.613Z,2.25
2018-03-21T12:51:46.095Z,2.33
2018-03-21T12:54:13.635Z,1.95
2018-03-21T12:56:41.118Z,1.98
2018-03-21T12:59:08.752Z,1.83
2018-03-21T13:01:36.317Z,2.25
2018-03-21T13:04:03.812Z,2.28
2018-03-21T13:06:31.286Z,2.58
2018-03-21T13:08:59.554Z,2.45
2018-03-21T13:11:27.011Z,3.10
2018-03-21T13:13:54.507Z,1.85
2018-03-21T13:16:22.789Z,1.90
2018-03-21T13:18:50.335Z,1.73
2018-03-21T13:21:18.565Z,1.67
2018-03-21T13:23:46.019Z,1.90
2018-03-21T13:26:13.518Z,1.77
2018-03-21T13:28:41.796Z,1.75
2018-03-21T13:31:10.090Z,1.65
2018-03-21T13:33:37.554Z,2.30
2018-03-21T13:36:05.053Z,2.12
2018-03-21T13:38:32.582Z,1.65
2018-03-21T13:41:00.057Z,2.05
2018-03-21T13:43:27.596Z,1.87
2018-03-21T13:45:55.095Z,1.75
2018-03-21T13:48:22.567Z,2.30
2018-03-21T13:50:50.049Z,1.55
2018-03-21T13:53:18.315Z,1.80
2018-03-21T13:55:46.569Z,2.15
2018-03-21T13:58:14.091Z,2.20
2018-03-21T14:00:41.604Z,2.03
2018-03-21T14:03:09.111Z,2.22
2018-03-21T14:05:36.603Z,2.40
2018-03-21T14:08:04.119Z,2.05
2018-03-21T14:10:31.602Z,1.50
2018-03-21T14:12:59.112Z,2.03
2018-03-21T14:15:27.372Z,1.92
2018-03-21T14:17:54.977Z,2.12
2018-03-21T14:20:22.485Z,1.58
2018-03-21T14:22:49.966Z,2.25
2018-03-21T14:25:18.220Z,1.83
2018-03-21T14:27:45.700Z,2.00
2018-03-21T14:30:13.983Z,2.30
2018-03-21T14:32:41.480Z,1.95
2018-03-21T14:35:08.991Z,2.50
2018-03-21T14:37:37.239Z,2.10
2018-03-21T16:59:08.794Z,3.90
2018-03-21T17:01:37.084Z,3.28
2018-03-21T17:04:04.664Z,4.00
2018-03-21T17:06:32.131Z,5.15
2018-03-21T17:08:59.628Z,5.30
2018-03-21T17:11:27.908Z,3.50
2018-03-21T17:13:55.423Z,3.90
2018-03-21T17:16:22.907Z,6.30
2018-03-21T17:18:50.463Z,5.60
2018-03-21T17:21:18.656Z,4.45
2018-03-21T17:23:46.168Z,5.20
2018-03-21T17:26:13.674Z,5.80
2018-03-21T17:28:41.163Z,5.45
2018-03-21T17:31:09.401Z,10.25
2018-03-21T17:33:36.873Z,8.43
2018-03-21T17:36:04.379Z,7.05
2018-03-21T17:38:31.887Z,6.90
2018-03-21T17:40:59.408Z,6.65
2018-03-21T17:43:26.910Z,8.85
2018-03-21T17:45:54.391Z,3.62
2018-03-21T17:48:22.634Z,4.05
2018-03-21T17:50:50.119Z,3.22
2018-03-21T17:53:18.378Z,3.45
2018-03-21T17:55:45.905Z,7.95
2018-03-21T17:58:13.370Z,7.90
2018-03-21T18:00:40.910Z,4.28
2018-03-21T18:03:08.399Z,3.45
2018-03-21T18:05:35.920Z,4.45
2018-03-21T18:08:03.390Z,5.03
2018-03-21T18:10:30.868Z,4.35
2018-03-21T18:12:58.413Z,5.65
2018-03-21T18:15:25.936Z,4.65
2018-03-21T18:17:54.216Z,4.18
2018-03-21T18:20:22.487Z,8.20
2018-03-21T18:22:50.777Z,6.15
2018-03-21T18:25:18.259Z,5.80
2018-03-21T18:27:45.775Z,7.70
2018-03-21T18:30:14.077Z,6.30
2018-03-21T18:32:41.567Z,6.25
2018-03-21T18:35:09.048Z,6.12
2018-03-21T18:37:36.560Z,6.97
2018-03-21T18:40:04.080Z,6.05
2018-03-21T18:42:32.416Z,5.12
2018-03-21T18:44:59.917Z,7.20
2018-03-21T18:47:28.191Z,15.30
2018-03-21T18:49:55.717Z,16.70
2018-03-21T18:52:24.007Z,20.33
2018-03-21T18:54:51.487Z,8.00
2018-03-21T18:57:18.991Z,6.43
2018-03-21T18:59:46.482Z,7.05
2018-03-21T19:02:14.069Z,4.60
2018-03-21T19:04:41.608Z,5.07
2018-03-21T19:07:09.075Z,6.53
2018-03-21T19:09:36.631Z,6.55
2018-03-21T19:12:04.103Z,6.35
2018-03-21T19:14:31.619Z,6.68
2018-03-21T19:16:59.117Z,6.18
2018-03-21T19:19:26.614Z,5.93
2018-03-21T19:21:54.127Z,6.45
2018-03-21T19:24:21.643Z,6.30
2018-03-21T19:26:49.135Z,7.07
2018-03-21T19:29:17.415Z,9.63
2018-03-21T19:31:44.936Z,11.23
2018-03-21T19:34:12.457Z,10.00
2018-03-21T19:36:39.971Z,10.13
2018-03-21T19:39:07.498Z,9.10
2018-03-21T19:41:35.021Z,8.65
2018-03-21T19:44:02.529Z,9.60
2018-03-21T19:46:30.081Z,8.90
2018-03-21T19:48:57.613Z,8.88
2018-03-21T19:51:25.072Z,7.75
2018-03-21T19:53:53.312Z,7.35
2018-03-21T19:56:20.839Z,8.48
2018-03-21T19:58:48.327Z,7.28
2018-03-21T20:01:15.840Z,6.50
2018-03-21T20:03:44.086Z,6.75
2018-03-21T20:06:11.612Z,5.35
2018-03-21T20:08:39.568Z,8.82
2018-03-21T20:11:07.073Z,7.45
2018-03-21T20:13:34.599Z,6.65
2018-03-21T20:16:02.105Z,6.93
2018-03-21T20:18:29.626Z,5.90
2018-03-21T20:20:57.095Z,5.97
2018-03-21T20:23:24.736Z,6.60
2018-03-21T20:25:52.229Z,5.82
2018-03-21T20:28:19.747Z,5.62
2018-03-21T20:30:47.231Z,5.60
2018-03-21T20:33:14.751Z,5.30
2018-03-21T20:35:42.239Z,4.70
2018-03-21T20:38:09.778Z,5.50
2018-03-21T20:40:37.291Z,5.65
2018-03-21T20:43:04.774Z,4.50
2018-03-21T20:45:33.037Z,5.65
2018-03-21T20:48:01.327Z,5.05
2018-03-21T20:50:29.596Z,4.50
2018-03-21T20:52:57.875Z,4.85
2018-03-21T20:55:26.180Z,3.87
2018-03-21T20:57:53.662Z,4.40
2018-03-21T21:00:21.217Z,4.40
2018-03-21T21:02:48.691Z,4.75
2018-03-21T21:05:16.239Z,4.22
2018-03-21T21:07:43.755Z,5.30
2018-03-21T21:10:12.024Z,5.32
2018-03-21T21:12:40.295Z,5.37
2018-03-21T21:15:07.913Z,4.87
2018-03-21T21:17:35.380Z,5.50
2018-03-21T21:20:02.915Z,5.53
2018-03-21T21:22:30.395Z,4.85
2018-03-21T21:24:57.897Z,4.90
2018-03-21T21:27:26.129Z,5.05
2018-03-21T21:29:53.632Z,7.20
2018-03-21T21:32:21.926Z,6.60
2018-03-21T21:34:50.187Z,6.20
2018-03-21T21:37:18.446Z,5.68
2018-03-21T21:39:45.937Z,5.85
2018-03-21T21:42:14.212Z,7.00
2018-03-21T21:44:41.728Z,7.20
2018-03-21T21:47:09.254Z,7.18
2018-03-21T21:49:36.756Z,8.02
2018-03-21T21:52:04.244Z,7.35
2018-03-21T21:54:32.650Z,7.50
2018-03-21T21:57:00.168Z,6.30
2018-03-21T21:59:27.687Z,6.68
2018-03-21T22:01:55.171Z,5.62
2018-03-21T22:04:22.689Z,4.72
2018-03-21T22:06:50.153Z,4.68
2018-03-21T22:09:17.680Z,5.40
2018-03-21T22:11:45.916Z,5.15
2018-03-21T22:14:14.178Z,5.53
2018-03-21T22:16:41.706Z,5.12
2018-03-21T22:19:09.211Z,5.43
2018-03-21T22:21:36.781Z,5.22
2018-03-21T22:24:04.308Z,5.30
2018-03-21T22:26:31.776Z,5.72
2018-03-21T22:28:59.278Z,5.37
2018-03-21T22:31:27.553Z,5.30
2018-03-21T22:33:55.807Z,6.55
2018-03-21T22:36:23.282Z,6.10
2018-03-21T22:38:50.770Z,5.10
2018-03-21T22:41:18.246Z,5.87
2018-03-21T22:43:45.763Z,5.28
2018-03-21T22:46:14.011Z,4.70
2018-03-21T22:48:41.523Z,4.90
2018-03-21T22:51:08.992Z,4.78
2018-03-21T22:53:36.498Z,6.22
2018-03-21T22:56:03.977Z,5.15
2018-03-21T22:58:32.243Z,6.05
2018-03-21T23:00:59.750Z,6.32
2018-03-21T23:03:27.255Z,5.55
2018-03-21T23:05:54.748Z,6.35
2018-03-21T23:08:22.214Z,5.40
2018-03-21T23:10:49.744Z,5.40
2018-03-21T23:13:18.010Z,5.45
2018-03-21T23:15:45.543Z,5.25
2018-03-21T23:18:13.020Z,6.20
2018-03-21T23:20:40.575Z,5.65
2018-03-21T23:23:08.056Z,5.50
2018-03-21T23:25:36.335Z,6.00
2018-03-21T23:28:03.812Z,5.60
2018-03-21T23:30:31.328Z,5.45
2018-03-21T23:32:58.803Z,7.45
2018-03-21T23:35:26.322Z,6.25
2018-03-21T23:37:53.835Z,6.00
2018-03-21T23:40:22.071Z,6.70
2018-03-21T23:42:49.613Z,5.70
2018-03-21T23:45:17.120Z,6.50
2018-03-21T23:47:44.599Z,5.47
2018-03-21T23:50:12.856Z,5.87
2018-03-21T23:52:40.389Z,5.03
2018-03-21T23:55:07.868Z,6.03
2018-03-21T23:57:35.366Z,7.07
